sensor_id;sensor_type;location;lat;lon;timestamp;P1;durP1;ratioP1;P2;durP2;ratioP2
18114;SDS011;9184;54.390;18.620;2023-06-10T00:00:20;12.60;;;4.30;;
18114;SDS011;9184;54.390;18.620;2023-06-10T00:00:50;13.00;;;4.45;;
18114;SDS011;9184;54.390;18.620;2023-06-10T00:01:22;13.18;;;4.40;;
18114;SDS011;9184;54.390;18.620;2023-06-10T00:01:53;8.95;;;4.00;;
18114;SDS011;9184;54.390;18.620;2023-06-10T00:02:29;15.52;;;4.75;;
18114;SDS011;9184;54.390;18.620;2023-06-10T00:03:01;8.23;;;3.72;;
18114;SDS011;9184;54.390;18.620;2023-06-10T00:03:32;7.07;;;3.75;;
18114;SDS011;9184;54.390;18.620;2023-06-10T00:04:02;8.98;;;4.55;;
18114;SDS011;9184;54.390;18.620;2023-06-10T00:04:33;12.05;;;3.75;;
18114;SDS011;9184;54.390;18.620;2023-06-10T00:05:06;12.00;;;4.32;;
18114;SDS011;9184;54.390;18.620;2023-06-10T00:05:38;9.45;;;3.72;;
18114;SDS011;9184;54.390;18.620;2023-06-10T00:06:08;8.60;;;4.28;;
18114;SDS011;9184;54.390;18.620;2023-06-10T00:06:39;18.70;;;3.65;;
18114;SDS011;9184;54.390;18.620;2023-06-10T00:07:10;7.10;;;3.33;;
18114;SDS011;9184;54.390;18.620;2023-06-10T00:07:41;14.75;;;4.53;;
18114;SDS011;9184;54.390;18.620;2023-06-10T00:08:12;11.18;;;3.47;;
18114;SDS011;9184;54.390;18.620;2023-06-10T00:08:45;12.57;;;4.63;;
18114;SDS011;9184;54.390;18.620;2023-06-10T00:09:17;8.38;;;3.97;;
18114;SDS011;9184;54.390;18.620;2023-06-10T00:09:48;10.07;;;3.60;;
18114;SDS011;9184;54.390;18.620;2023-06-10T00:10:18;11.07;;;4.13;;
18114;SDS011;9184;54.390;18.620;2023-06-10T00:10:50;11.27;;;4.18;;
18114;SDS011;9184;54.390;18.620;2023-06-10T00:11:20;18.55;;;4.00;;
18114;SDS011;9184;54.390;18.620;2023-06-10T00:11:51;11.55;;;3.47;;
18114;SDS011;9184;54.390;18.620;2023-06-10T00:12:23;10.38;;;4.00;;
18114;SDS011;9184;54.390;18.620;2023-06-10T00:12:53;9.35;;;4.18;;
18114;SDS011;9184;54.390;18.620;2023-06-10T00:13:25;13.38;;;4.60;;
18114;SDS011;9184;54.390;18.620;2023-06-10T00:13:56;12.50;;;3.85;;
18114;SDS011;9184;54.390;18.620;2023-06-10T00:14:27;12.07;;;3.60;;
18114;SDS011;9184;54.390;18.620;2023-06-10T00:14:57;17.13;;;3.97;;
18114;SDS011;9184;54.390;18.620;2023-06-10T00:15:29;9.68;;;3.63;;
18114;SDS011;9184;54.390;18.620;2023-06-10T00:15:59;5.97;;;3.53;;
18114;SDS011;9184;54.390;18.620;2023-06-10T00:16:30;11.23;;;3.95;;
18114;SDS011;9184;54.390;18.620;2023-06-10T00:17:01;11.32;;;4.32;;
18114;SDS011;9184;54.390;18.620;2023-06-10T00:17:32;8.32;;;3.50;;
18114;SDS011;9184;54.390;18.620;2023-06-10T00:18:02;21.30;;;4.40;;
18114;SDS011;9184;54.390;18.620;2023-06-10T00:18:34;10.73;;;3.95;;
18114;SDS011;9184;54.390;18.620;2023-06-10T00:19:07;9.35;;;3.88;;
18114;SDS011;9184;54.390;18.620;2023-06-10T00:19:38;9.60;;;3.75;;
18114;SDS011;9184;54.390;18.620;2023-06-10T00:20:11;9.05;;;3.95;;
18114;SDS011;9184;54.390;18.620;2023-06-10T00:20:42;10.88;;;4.13;;
18114;SDS011;9184;54.390;18.620;2023-06-10T00:21:12;12.13;;;4.00;;
18114;SDS011;9184;54.390;18.620;2023-06-10T00:21:44;9.48;;;4.00;;
18114;SDS011;9184;54.390;18.620;2023-06-10T00:22:14;9.23;;;3.63;;
18114;SDS011;9184;54.390;18.620;2023-06-10T00:22:46;10.52;;;4.05;;
18114;SDS011;9184;54.390;18.620;2023-06-10T00:23:18;7.68;;;3.95;;
18114;SDS011;9184;54.390;18.620;2023-06-10T00:23:49;7.10;;;4.00;;
18114;SDS011;9184;54.390;18.620;2023-06-10T00:24:20;13.60;;;4.22;;
18114;SDS011;9184;54.390;18.620;2023-06-10T00:24:51;15.63;;;4.60;;
18114;SDS011;9184;54.390;18.620;2023-06-10T00:25:21;9.73;;;4.38;;
18114;SDS011;9184;54.390;18.620;2023-06-10T00:25:53;10.70;;;4.05;;
18114;SDS011;9184;54.390;18.620;2023-06-10T00:26:23;14.95;;;3.95;;
18114;SDS011;9184;54.390;18.620;2023-06-10T00:26:54;12.45;;;4.55;;
18114;SDS011;9184;54.390;18.620;2023-06-10T00:27:25;11.55;;;4.57;;
18114;SDS011;9184;54.390;18.620;2023-06-10T00:28:01;6.93;;;3.35;;
18114;SDS011;9184;54.390;18.620;2023-06-10T00:28:33;8.15;;;3.65;;
18114;SDS011;9184;54.390;18.620;2023-06-10T00:29:03;12.50;;;3.83;;
18114;SDS011;9184;54.390;18.620;2023-06-10T00:29:35;11.02;;;3.88;;
18114;SDS011;9184;54.390;18.620;2023-06-10T00:30:06;6.40;;;3.78;;
18114;SDS011;9184;54.390;18.620;2023-06-10T00:30:37;10.07;;;3.55;;
18114;SDS011;9184;54.390;18.620;2023-06-10T00:31:08;7.75;;;3.65;;
18114;SDS011;9184;54.390;18.620;2023-06-10T00:31:39;10.25;;;4.25;;
18114;SDS011;9184;54.390;18.620;2023-06-10T00:32:09;7.03;;;3.53;;
18114;SDS011;9184;54.390;18.620;2023-06-10T00:32:40;10.98;;;4.40;;
18114;SDS011;9184;54.390;18.620;2023-06-10T00:33:11;11.52;;;3.75;;
18114;SDS011;9184;54.390;18.620;2023-06-10T00:33:41;13.05;;;4.20;;
18114;SDS011;9184;54.390;18.620;2023-06-10T00:34:12;9.00;;;3.30;;
18114;SDS011;9184;54.390;18.620;2023-06-10T00:34:43;8.13;;;3.40;;
18114;SDS011;9184;54.390;18.620;2023-06-10T00:35:14;8.68;;;3.67;;
18114;SDS011;9184;54.390;18.620;2023-06-10T00:35:44;10.23;;;3.55;;
18114;SDS011;9184;54.390;18.620;2023-06-10T00:36:16;17.33;;;3.97;;
18114;SDS011;9184;54.390;18.620;2023-06-10T00:36:46;10.07;;;3.92;;
18114;SDS011;9184;54.390;18.620;2023-06-10T00:37:17;14.40;;;4.32;;
18114;SDS011;9184;54.390;18.620;2023-06-10T00:37:48;14.82;;;4.45;;
18114;SDS011;9184;54.390;18.620;2023-06-10T00:38:19;12.27;;;3.63;;
18114;SDS011;9184;54.390;18.620;2023-06-10T00:38:49;13.23;;;3.65;;
18114;SDS011;9184;54.390;18.620;2023-06-10T00:39:20;13.80;;;3.58;;
18114;SDS011;9184;54.390;18.620;2023-06-10T00:39:51;11.23;;;4.15;;
18114;SDS011;9184;54.390;18.620;2023-06-10T00:40:22;9.02;;;4.05;;
18114;SDS011;9184;54.390;18.620;2023-06-10T00:40:52;9.98;;;3.92;;
18114;SDS011;9184;54.390;18.620;2023-06-10T00:41:22;9.32;;;3.97;;
18114;SDS011;9184;54.390;18.620;2023-06-10T00:41:54;8.25;;;4.22;;
18114;SDS011;9184;54.390;18.620;2023-06-10T00:42:25;7.70;;;3.60;;
18114;SDS011;9184;54.390;18.620;2023-06-10T00:42:55;8.98;;;3.60;;
18114;SDS011;9184;54.390;18.620;2023-06-10T00:43:27;14.48;;;4.68;;
18114;SDS011;9184;54.390;18.620;2023-06-10T00:43:59;11.90;;;3.92;;
18114;SDS011;9184;54.390;18.620;2023-06-10T00:44:29;12.20;;;3.78;;
18114;SDS011;9184;54.390;18.620;2023-06-10T00:45:00;9.20;;;3.97;;
18114;SDS011;9184;54.390;18.620;2023-06-10T00:45:31;8.48;;;3.95;;
18114;SDS011;9184;54.390;18.620;2023-06-10T00:46:02;12.05;;;4.35;;
18114;SDS011;9184;54.390;18.620;2023-06-10T00:46:32;11.48;;;4.70;;
18114;SDS011;9184;54.390;18.620;2023-06-10T00:47:04;10.82;;;3.92;;
18114;SDS011;9184;54.390;18.620;2023-06-10T00:47:35;9.02;;;4.35;;
18114;SDS011;9184;54.390;18.620;2023-06-10T00:48:06;6.75;;;3.70;;
18114;SDS011;9184;54.390;18.620;2023-06-10T00:48:38;9.10;;;4.40;;
18114;SDS011;9184;54.390;18.620;2023-06-10T00:49:09;7.35;;;3.05;;
18114;SDS011;9184;54.390;18.620;2023-06-10T00:49:40;13.52;;;3.75;;
18114;SDS011;9184;54.390;18.620;2023-06-10T00:50:10;17.15;;;3.70;;
18114;SDS011;9184;54.390;18.620;2023-06-10T00:50:42;8.35;;;3.50;;
18114;SDS011;9184;54.390;18.620;2023-06-10T00:51:13;12.07;;;4.05;;
18114;SDS011;9184;54.390;18.620;2023-06-10T00:51:44;12.23;;;4.28;;
18114;SDS011;9184;54.390;18.620;2023-06-10T00:52:15;9.18;;;4.13;;
18114;SDS011;9184;54.390;18.620;2023-06-10T00:52:46;13.43;;;4.05;;
18114;SDS011;9184;54.390;18.620;2023-06-10T00:53:18;11.95;;;4.20;;
18114;SDS011;9184;54.390;18.620;2023-06-10T00:53:49;14.48;;;4.38;;
18114;SDS011;9184;54.390;18.620;2023-06-10T00:54:20;11.18;;;4.18;;
18114;SDS011;9184;54.390;18.620;2023-06-10T00:54:51;11.05;;;4.13;;
18114;SDS011;9184;54.390;18.620;2023-06-10T00:55:21;11.68;;;4.22;;
18114;SDS011;9184;54.390;18.620;2023-06-10T00:55:53;10.88;;;4.18;;
18114;SDS011;9184;54.390;18.620;2023-06-10T00:56:23;12.68;;;4.50;;
18114;SDS011;9184;54.390;18.620;2023-06-10T00:56:55;11.10;;;3.80;;
18114;SDS011;9184;54.390;18.620;2023-06-10T00:57:27;9.63;;;3.88;;
18114;SDS011;9184;54.390;18.620;2023-06-10T00:57:59;13.52;;;4.10;;
18114;SDS011;9184;54.390;18.620;2023-06-10T00:58:30;8.20;;;3.70;;
18114;SDS011;9184;54.390;18.620;2023-06-10T00:59:03;8.20;;;3.95;;
18114;SDS011;9184;54.390;18.620;2023-06-10T00:59:33;8.48;;;3.92;;
18114;SDS011;9184;54.390;18.620;2023-06-10T01:00:04;11.38;;;4.38;;
18114;SDS011;9184;54.390;18.620;2023-06-10T01:00:38;11.13;;;3.95;;
18114;SDS011;9184;54.390;18.620;2023-06-10T01:01:09;9.85;;;4.15;;
18114;SDS011;9184;54.390;18.620;2023-06-10T01:01:41;10.27;;;4.20;;
18114;SDS011;9184;54.390;18.620;2023-06-10T01:02:13;11.70;;;3.97;;
18114;SDS011;9184;54.390;18.620;2023-06-10T01:02:44;8.07;;;4.10;;
18114;SDS011;9184;54.390;18.620;2023-06-10T01:03:15;8.25;;;4.00;;
18114;SDS011;9184;54.390;18.620;2023-06-10T01:03:47;6.03;;;3.80;;
18114;SDS011;9184;54.390;18.620;2023-06-10T01:04:18;9.30;;;4.43;;
18114;SDS011;9184;54.390;18.620;2023-06-10T01:04:49;8.98;;;3.85;;
18114;SDS011;9184;54.390;18.620;2023-06-10T01:05:22;7.53;;;3.90;;
18114;SDS011;9184;54.390;18.620;2023-06-10T01:05:53;11.93;;;4.20;;
18114;SDS011;9184;54.390;18.620;2023-06-10T01:06:31;7.05;;;4.13;;
18114;SDS011;9184;54.390;18.620;2023-06-10T01:07:05;6.13;;;3.47;;
18114;SDS011;9184;54.390;18.620;2023-06-10T01:07:43;9.80;;;3.85;;
18114;SDS011;9184;54.390;18.620;2023-06-10T01:08:19;11.30;;;4.50;;
18114;SDS011;9184;54.390;18.620;2023-06-10T01:08:55;10.65;;;4.38;;
18114;SDS011;9184;54.390;18.620;2023-06-10T01:09:29;9.82;;;3.38;;
18114;SDS011;9184;54.390;18.620;2023-06-10T01:10:04;6.78;;;3.67;;
18114;SDS011;9184;54.390;18.620;2023-06-10T01:10:38;9.05;;;3.90;;
18114;SDS011;9184;54.390;18.620;2023-06-10T01:11:08;16.92;;;4.95;;
18114;SDS011;9184;54.390;18.620;2023-06-10T01:11:44;9.05;;;4.05;;
18114;SDS011;9184;54.390;18.620;2023-06-10T01:12:19;10.73;;;4.82;;
18114;SDS011;9184;54.390;18.620;2023-06-10T01:12:52;12.20;;;4.60;;
18114;SDS011;9184;54.390;18.620;2023-06-10T01:13:26;14.05;;;4.28;;
18114;SDS011;9184;54.390;18.620;2023-06-10T01:13:59;7.07;;;3.50;;
18114;SDS011;9184;54.390;18.620;2023-06-10T01:14:32;11.75;;;4.05;;
18114;SDS011;9184;54.390;18.620;2023-06-10T01:15:02;13.20;;;4.60;;
18114;SDS011;9184;54.390;18.620;2023-06-10T01:15:34;10.93;;;3.55;;
18114;SDS011;9184;54.390;18.620;2023-06-10T01:16:05;7.97;;;3.35;;
18114;SDS011;9184;54.390;18.620;2023-06-10T01:16:35;9.85;;;3.78;;
18114;SDS011;9184;54.390;18.620;2023-06-10T01:17:07;8.63;;;3.63;;
18114;SDS011;9184;54.390;18.620;2023-06-10T01:17:52;10.30;;;4.07;;
18114;SDS011;9184;54.390;18.620;2023-06-10T01:18:29;12.40;;;4.53;;
18114;SDS011;9184;54.390;18.620;2023-06-10T01:19:00;8.75;;;3.83;;
18114;SDS011;9184;54.390;18.620;2023-06-10T01:19:31;10.13;;;3.65;;
18114;SDS011;9184;54.390;18.620;2023-06-10T01:20:04;11.57;;;3.45;;
18114;SDS011;9184;54.390;18.620;2023-06-10T01:20:42;10.02;;;4.13;;
18114;SDS011;9184;54.390;18.620;2023-06-10T01:21:16;9.02;;;4.20;;
18114;SDS011;9184;54.390;18.620;2023-06-10T01:21:47;12.45;;;4.13;;
18114;SDS011;9184;54.390;18.620;2023-06-10T01:22:18;7.22;;;3.67;;
18114;SDS011;9184;54.390;18.620;2023-06-10T01:22:49;7.75;;;3.65;;
18114;SDS011;9184;54.390;18.620;2023-06-10T01:23:20;6.15;;;3.40;;
18114;SDS011;9184;54.390;18.620;2023-06-10T01:23:52;14.38;;;4.18;;
18114;SDS011;9184;54.390;18.620;2023-06-10T01:24:24;9.18;;;3.80;;
18114;SDS011;9184;54.390;18.620;2023-06-10T01:24:54;16.45;;;4.82;;
18114;SDS011;9184;54.390;18.620;2023-06-10T01:25:28;6.72;;;3.42;;
18114;SDS011;9184;54.390;18.620;2023-06-10T01:26:04;12.98;;;3.70;;
18114;SDS011;9184;54.390;18.620;2023-06-10T01:26:36;10.02;;;3.42;;
18114;SDS011;9184;54.390;18.620;2023-06-10T01:27:12;12.40;;;3.38;;
18114;SDS011;9184;54.390;18.620;2023-06-10T01:27:45;13.13;;;3.53;;
18114;SDS011;9184;54.390;18.620;2023-06-10T01:28:17;9.88;;;3.67;;
18114;SDS011;9184;54.390;18.620;2023-06-10T01:28:49;8.57;;;4.05;;
18114;SDS011;9184;54.390;18.620;2023-06-10T01:29:25;6.88;;;3.50;;
18114;SDS011;9184;54.390;18.620;2023-06-10T01:29:59;7.18;;;3.05;;
18114;SDS011;9184;54.390;18.620;2023-06-10T01:30:41;6.53;;;3.25;;
18114;SDS011;9184;54.390;18.620;2023-06-10T01:31:16;9.98;;;4.13;;
18114;SDS011;9184;54.390;18.620;2023-06-10T01:31:48;14.85;;;3.97;;
18114;SDS011;9184;54.390;18.620;2023-06-10T01:32:21;13.85;;;3.70;;
18114;SDS011;9184;54.390;18.620;2023-06-10T01:32:54;6.88;;;3.78;;
18114;SDS011;9184;54.390;18.620;2023-06-10T01:33:25;15.65;;;3.83;;
18114;SDS011;9184;54.390;18.620;2023-06-10T01:33:56;8.20;;;3.58;;
18114;SDS011;9184;54.390;18.620;2023-06-10T01:34:27;4.43;;;3.08;;
18114;SDS011;9184;54.390;18.620;2023-06-10T01:34:59;14.90;;;3.45;;
18114;SDS011;9184;54.390;18.620;2023-06-10T01:35:30;12.50;;;4.20;;
18114;SDS011;9184;54.390;18.620;2023-06-10T01:36:00;11.82;;;4.00;;
18114;SDS011;9184;54.390;18.620;2023-06-10T01:36:34;9.77;;;3.40;;
18114;SDS011;9184;54.390;18.620;2023-06-10T01:37:05;10.27;;;3.60;;
18114;SDS011;9184;54.390;18.620;2023-06-10T01:37:36;10.90;;;3.35;;
18114;SDS011;9184;54.390;18.620;2023-06-10T01:38:10;12.63;;;3.88;;
18114;SDS011;9184;54.390;18.620;2023-06-10T01:38:42;17.05;;;4.32;;
18114;SDS011;9184;54.390;18.620;2023-06-10T01:39:13;12.52;;;3.92;;
18114;SDS011;9184;54.390;18.620;2023-06-10T01:39:46;20.02;;;4.22;;
18114;SDS011;9184;54.390;18.620;2023-06-10T01:40:17;8.18;;;3.17;;
18114;SDS011;9184;54.390;18.620;2023-06-10T01:40:48;8.73;;;3.63;;
18114;SDS011;9184;54.390;18.620;2023-06-10T01:41:19;8.77;;;3.80;;
18114;SDS011;9184;54.390;18.620;2023-06-10T01:41:51;11.05;;;3.65;;
18114;SDS011;9184;54.390;18.620;2023-06-10T01:42:22;11.95;;;3.55;;
18114;SDS011;9184;54.390;18.620;2023-06-10T01:42:53;6.22;;;3.22;;
18114;SDS011;9184;54.390;18.620;2023-06-10T01:43:24;14.98;;;4.38;;
18114;SDS011;9184;54.390;18.620;2023-06-10T01:43:55;8.80;;;3.60;;
18114;SDS011;9184;54.390;18.620;2023-06-10T01:44:25;7.35;;;3.53;;
18114;SDS011;9184;54.390;18.620;2023-06-10T01:44:57;8.18;;;3.35;;
18114;SDS011;9184;54.390;18.620;2023-06-10T01:45:27;6.97;;;3.33;;
18114;SDS011;9184;54.390;18.620;2023-06-10T01:45:58;8.55;;;3.88;;
18114;SDS011;9184;54.390;18.620;2023-06-10T01:46:28;9.73;;;3.88;;
18114;SDS011;9184;54.390;18.620;2023-06-10T01:47:00;5.05;;;3.05;;
18114;SDS011;9184;54.390;18.620;2023-06-10T01:47:30;9.98;;;3.47;;
18114;SDS011;9184;54.390;18.620;2023-06-10T01:48:01;7.30;;;3.28;;
18114;SDS011;9184;54.390;18.620;2023-06-10T01:48:33;9.65;;;3.30;;
18114;SDS011;9184;54.390;18.620;2023-06-10T01:49:03;9.05;;;3.47;;
18114;SDS011;9184;54.390;18.620;2023-06-10T01:49:34;10.70;;;3.42;;
18114;SDS011;9184;54.390;18.620;2023-06-10T01:50:05;11.25;;;3.75;;
18114;SDS011;9184;54.390;18.620;2023-06-10T01:50:36;10.20;;;3.15;;
18114;SDS011;9184;54.390;18.620;2023-06-10T01:51:07;11.05;;;3.67;;
18114;SDS011;9184;54.390;18.620;2023-06-10T01:51:39;7.05;;;3.08;;
18114;SDS011;9184;54.390;18.620;2023-06-10T01:52:11;6.05;;;2.90;;
18114;SDS011;9184;54.390;18.620;2023-06-10T01:52:41;15.07;;;3.70;;
18114;SDS011;9184;54.390;18.620;2023-06-10T01:53:12;5.70;;;2.70;;
18114;SDS011;9184;54.390;18.620;2023-06-10T01:53:42;12.20;;;3.25;;
18114;SDS011;9184;54.390;18.620;2023-06-10T01:54:14;7.57;;;3.10;;
18114;SDS011;9184;54.390;18.620;2023-06-10T01:54:44;9.95;;;3.10;;
18114;SDS011;9184;54.390;18.620;2023-06-10T01:55:15;8.57;;;3.05;;
18114;SDS011;9184;54.390;18.620;2023-06-10T01:55:46;8.82;;;3.10;;
18114;SDS011;9184;54.390;18.620;2023-06-10T01:56:16;10.45;;;3.17;;
18114;SDS011;9184;54.390;18.620;2023-06-10T01:56:49;7.70;;;3.35;;
18114;SDS011;9184;54.390;18.620;2023-06-10T01:57:20;10.23;;;2.95;;
18114;SDS011;9184;54.390;18.620;2023-06-10T01:57:51;7.68;;;3.20;;
18114;SDS011;9184;54.390;18.620;2023-06-10T01:58:22;7.15;;;3.38;;
18114;SDS011;9184;54.390;18.620;2023-06-10T01:58:53;5.88;;;3.15;;
18114;SDS011;9184;54.390;18.620;2023-06-10T01:59:28;8.13;;;3.45;;
18114;SDS011;9184;54.390;18.620;2023-06-10T01:59:59;8.23;;;2.88;;
18114;SDS011;9184;54.390;18.620;2023-06-10T02:00:29;8.25;;;2.88;;
18114;SDS011;9184;54.390;18.620;2023-06-10T02:01:01;8.20;;;2.88;;
18114;SDS011;9184;54.390;18.620;2023-06-10T02:01:32;6.15;;;3.10;;
18114;SDS011;9184;54.390;18.620;2023-06-10T02:02:02;9.98;;;3.33;;
18114;SDS011;9184;54.390;18.620;2023-06-10T02:02:34;10.32;;;2.85;;
18114;SDS011;9184;54.390;18.620;2023-06-10T02:03:04;9.13;;;3.22;;
18114;SDS011;9184;54.390;18.620;2023-06-10T02:03:35;6.00;;;2.88;;
18114;SDS011;9184;54.390;18.620;2023-06-10T02:04:05;8.18;;;2.95;;
18114;SDS011;9184;54.390;18.620;2023-06-10T02:04:37;8.05;;;2.95;;
18114;SDS011;9184;54.390;18.620;2023-06-10T02:05:07;6.15;;;2.90;;
18114;SDS011;9184;54.390;18.620;2023-06-10T02:05:38;9.23;;;3.15;;
18114;SDS011;9184;54.390;18.620;2023-06-10T02:06:10;11.57;;;3.50;;
18114;SDS011;9184;54.390;18.620;2023-06-10T02:06:41;7.45;;;2.90;;
18114;SDS011;9184;54.390;18.620;2023-06-10T02:07:12;9.88;;;2.50;;
18114;SDS011;9184;54.390;18.620;2023-06-10T02:07:44;5.60;;;3.00;;
18114;SDS011;9184;54.390;18.620;2023-06-10T02:08:14;7.97;;;2.75;;
18114;SDS011;9184;54.390;18.620;2023-06-10T02:08:45;10.02;;;2.83;;
18114;SDS011;9184;54.390;18.620;2023-06-10T02:09:16;8.68;;;2.83;;
18114;SDS011;9184;54.390;18.620;2023-06-10T02:09:48;9.90;;;2.97;;
18114;SDS011;9184;54.390;18.620;2023-06-10T02:10:18;11.70;;;3.72;;
18114;SDS011;9184;54.390;18.620;2023-06-10T02:10:49;4.32;;;2.92;;
18114;SDS011;9184;54.390;18.620;2023-06-10T02:11:20;6.95;;;2.55;;
18114;SDS011;9184;54.390;18.620;2023-06-10T02:11:51;4.15;;;2.75;;
18114;SDS011;9184;54.390;18.620;2023-06-10T02:12:22;7.45;;;3.28;;
18114;SDS011;9184;54.390;18.620;2023-06-10T02:12:53;4.20;;;2.13;;
18114;SDS011;9184;54.390;18.620;2023-06-10T02:13:24;12.43;;;2.67;;
18114;SDS011;9184;54.390;18.620;2023-06-10T02:13:54;7.30;;;2.53;;
18114;SDS011;9184;54.390;18.620;2023-06-10T02:14:26;9.05;;;2.80;;
18114;SDS011;9184;54.390;18.620;2023-06-10T02:14:56;10.75;;;3.08;;
18114;SDS011;9184;54.390;18.620;2023-06-10T02:15:26;14.40;;;3.20;;
18114;SDS011;9184;54.390;18.620;2023-06-10T02:15:58;7.90;;;2.97;;
18114;SDS011;9184;54.390;18.620;2023-06-10T02:16:29;10.77;;;3.40;;
18114;SDS011;9184;54.390;18.620;2023-06-10T02:17:01;5.72;;;2.55;;
18114;SDS011;9184;54.390;18.620;2023-06-10T02:17:33;4.97;;;3.05;;
18114;SDS011;9184;54.390;18.620;2023-06-10T02:18:03;12.30;;;2.60;;
18114;SDS011;9184;54.390;18.620;2023-06-10T02:18:34;9.80;;;2.97;;
18114;SDS011;9184;54.390;18.620;2023-06-10T02:19:05;7.07;;;2.80;;
18114;SDS011;9184;54.390;18.620;2023-06-10T02:19:36;6.32;;;3.05;;
18114;SDS011;9184;54.390;18.620;2023-06-10T02:20:07;6.95;;;2.78;;
18114;SDS011;9184;54.390;18.620;2023-06-10T02:20:40;7.72;;;3.03;;
18114;SDS011;9184;54.390;18.620;2023-06-10T02:21:12;6.97;;;2.97;;
18114;SDS011;9184;54.390;18.620;2023-06-10T02:21:44;7.32;;;2.45;;
18114;SDS011;9184;54.390;18.620;2023-06-10T02:22:14;4.47;;;2.83;;
18114;SDS011;9184;54.390;18.620;2023-06-10T02:22:45;8.18;;;2.95;;
18114;SDS011;9184;54.390;18.620;2023-06-10T02:23:16;7.05;;;2.95;;
18114;SDS011;9184;54.390;18.620;2023-06-10T02:23:47;17.95;;;6.90;;
18114;SDS011;9184;54.390;18.620;2023-06-10T02:24:17;6.10;;;3.13;;
18114;SDS011;9184;54.390;18.620;2023-06-10T02:24:48;17.02;;;4.55;;
18114;SDS011;9184;54.390;18.620;2023-06-10T02:25:19;6.63;;;2.70;;
18114;SDS011;9184;54.390;18.620;2023-06-10T02:25:50;10.35;;;2.83;;
18114;SDS011;9184;54.390;18.620;2023-06-10T02:26:20;8.18;;;4.40;;
18114;SDS011;9184;54.390;18.620;2023-06-10T02:26:51;9.32;;;3.03;;
18114;SDS011;9184;54.390;18.620;2023-06-10T02:27:23;7.85;;;2.92;;
18114;SDS011;9184;54.390;18.620;2023-06-10T02:27:53;10.52;;;3.72;;
18114;SDS011;9184;54.390;18.620;2023-06-10T02:28:23;17.80;;;3.35;;
18114;SDS011;9184;54.390;18.620;2023-06-10T02:28:55;13.05;;;3.40;;
18114;SDS011;9184;54.390;18.620;2023-06-10T02:29:25;9.38;;;3.50;;
18114;SDS011;9184;54.390;18.620;2023-06-10T02:29:56;10.65;;;3.15;;
18114;SDS011;9184;54.390;18.620;2023-06-10T02:30:26;9.70;;;2.88;;
18114;SDS011;9184;54.390;18.620;2023-06-10T02:30:58;12.23;;;3.00;;
18114;SDS011;9184;54.390;18.620;2023-06-10T02:31:29;10.93;;;3.63;;
18114;SDS011;9184;54.390;18.620;2023-06-10T02:31:59;11.98;;;3.28;;
18114;SDS011;9184;54.390;18.620;2023-06-10T02:32:31;6.50;;;3.83;;
18114;SDS011;9184;54.390;18.620;2023-06-10T02:33:01;9.10;;;3.30;;
18114;SDS011;9184;54.390;18.620;2023-06-10T02:33:32;7.30;;;3.33;;
18114;SDS011;9184;54.390;18.620;2023-06-10T02:34:03;6.60;;;3.85;;
18114;SDS011;9184;54.390;18.620;2023-06-10T02:34:34;10.55;;;3.15;;
18114;SDS011;9184;54.390;18.620;2023-06-10T02:35:06;9.70;;;2.88;;
18114;SDS011;9184;54.390;18.620;2023-06-10T02:35:37;7.55;;;2.90;;
18114;SDS011;9184;54.390;18.620;2023-06-10T02:36:08;10.35;;;3.30;;
18114;SDS011;9184;54.390;18.620;2023-06-10T02:36:44;8.00;;;2.90;;
18114;SDS011;9184;54.390;18.620;2023-06-10T02:37:15;12.55;;;4.47;;
18114;SDS011;9184;54.390;18.620;2023-06-10T02:37:45;6.03;;;3.45;;
18114;SDS011;9184;54.390;18.620;2023-06-10T02:38:17;4.70;;;2.63;;
18114;SDS011;9184;54.390;18.620;2023-06-10T02:38:48;5.00;;;2.83;;
18114;SDS011;9184;54.390;18.620;2023-06-10T02:39:18;7.63;;;2.40;;
18114;SDS011;9184;54.390;18.620;2023-06-10T02:39:50;8.43;;;2.97;;
18114;SDS011;9184;54.390;18.620;2023-06-10T02:40:20;9.45;;;2.60;;
18114;SDS011;9184;54.390;18.620;2023-06-10T02:40:51;12.68;;;3.30;;
18114;SDS011;9184;54.390;18.620;2023-06-10T02:41:21;7.32;;;2.70;;
18114;SDS011;9184;54.390;18.620;2023-06-10T02:41:53;7.15;;;3.00;;
18114;SDS011;9184;54.390;18.620;2023-06-10T02:42:23;5.75;;;2.72;;
18114;SDS011;9184;54.390;18.620;2023-06-10T02:42:54;11.27;;;2.92;;
18114;SDS011;9184;54.390;18.620;2023-06-10T02:43:25;10.15;;;3.10;;
18114;SDS011;9184;54.390;18.620;2023-06-10T02:43:56;10.45;;;3.42;;
18114;SDS011;9184;54.390;18.620;2023-06-10T02:44:26;6.95;;;2.95;;
18114;SDS011;9184;54.390;18.620;2023-06-10T02:44:58;8.88;;;3.25;;
18114;SDS011;9184;54.390;18.620;2023-06-10T02:45:28;9.05;;;2.63;;
18114;SDS011;9184;54.390;18.620;2023-06-10T02:45:59;11.68;;;3.17;;
18114;SDS011;9184;54.390;18.620;2023-06-10T02:46:30;6.22;;;2.55;;
18114;SDS011;9184;54.390;18.620;2023-06-10T02:47:02;13.32;;;3.03;;
18114;SDS011;9184;54.390;18.620;2023-06-10T02:47:32;14.85;;;2.97;;
18114;SDS011;9184;54.390;18.620;2023-06-10T02:48:03;4.15;;;2.28;;
18114;SDS011;9184;54.390;18.620;2023-06-10T02:48:40;6.15;;;2.95;;
18114;SDS011;9184;54.390;18.620;2023-06-10T02:49:11;6.40;;;2.65;;
18114;SDS011;9184;54.390;18.620;2023-06-10T02:49:41;8.02;;;2.50;;
18114;SDS011;9184;54.390;18.620;2023-06-10T02:50:12;9.63;;;2.20;;
18114;SDS011;9184;54.390;18.620;2023-06-10T02:50:43;6.20;;;2.13;;
18114;SDS011;9184;54.390;18.620;2023-06-10T02:51:14;6.22;;;2.40;;
18114;SDS011;9184;54.390;18.620;2023-06-10T02:51:45;8.18;;;2.78;;
18114;SDS011;9184;54.390;18.620;2023-06-10T02:52:17;5.45;;;2.22;;
18114;SDS011;9184;54.390;18.620;2023-06-10T02:52:48;7.75;;;2.40;;
18114;SDS011;9184;54.390;18.620;2023-06-10T02:53:18;7.55;;;2.28;;
18114;SDS011;9184;54.390;18.620;2023-06-10T02:53:49;5.72;;;2.20;;
18114;SDS011;9184;54.390;18.620;2023-06-10T02:54:20;5.65;;;2.40;;
18114;SDS011;9184;54.390;18.620;2023-06-10T02:54:50;7.38;;;2.45;;
18114;SDS011;9184;54.390;18.620;2023-06-10T02:55:21;8.15;;;2.38;;
18114;SDS011;9184;54.390;18.620;2023-06-10T02:55:56;8.93;;;3.25;;
18114;SDS011;9184;54.390;18.620;2023-06-10T02:56:26;6.35;;;3.28;;
18114;SDS011;9184;54.390;18.620;2023-06-10T02:56:57;6.68;;;2.45;;
18114;SDS011;9184;54.390;18.620;2023-06-10T02:57:28;3.50;;;2.17;;
18114;SDS011;9184;54.390;18.620;2023-06-10T02:57:58;8.95;;;2.80;;
18114;SDS011;9184;54.390;18.620;2023-06-10T02:58:30;8.55;;;2.10;;
18114;SDS011;9184;54.390;18.620;2023-06-10T02:59:01;7.95;;;2.58;;
18114;SDS011;9184;54.390;18.620;2023-06-10T02:59:32;6.07;;;2.42;;
18114;SDS011;9184;54.390;18.620;2023-06-10T03:00:03;3.78;;;1.98;;
18114;SDS011;9184;54.390;18.620;2023-06-10T03:00:39;7.63;;;3.50;;
18114;SDS011;9184;54.390;18.620;2023-06-10T03:01:12;7.88;;;2.92;;
18114;SDS011;9184;54.390;18.620;2023-06-10T03:01:43;10.35;;;2.75;;
18114;SDS011;9184;54.390;18.620;2023-06-10T03:02:13;8.10;;;2.38;;
18114;SDS011;9184;54.390;18.620;2023-06-10T03:02:45;6.30;;;2.25;;
18114;SDS011;9184;54.390;18.620;2023-06-10T03:03:16;10.93;;;2.65;;
18114;SDS011;9184;54.390;18.620;2023-06-10T03:03:47;9.80;;;2.20;;
18114;SDS011;9184;54.390;18.620;2023-06-10T03:04:20;5.85;;;2.33;;
18114;SDS011;9184;54.390;18.620;2023-06-10T03:04:50;5.47;;;2.40;;
18114;SDS011;9184;54.390;18.620;2023-06-10T03:05:23;9.40;;;2.22;;
18114;SDS011;9184;54.390;18.620;2023-06-10T03:05:53;8.48;;;2.65;;
18114;SDS011;9184;54.390;18.620;2023-06-10T03:06:26;8.38;;;2.40;;
18114;SDS011;9184;54.390;18.620;2023-06-10T03:06:58;9.45;;;2.55;;
18114;SDS011;9184;54.390;18.620;2023-06-10T03:07:30;4.07;;;2.58;;
18114;SDS011;9184;54.390;18.620;2023-06-10T03:08:02;4.53;;;2.92;;
18114;SDS011;9184;54.390;18.620;2023-06-10T03:08:32;5.55;;;2.28;;
18114;SDS011;9184;54.390;18.620;2023-06-10T03:09:03;4.32;;;1.92;;